sensor_id;sensor_type;location;lat;lon;timestamp;pressure;altitude;pressure_sealevel;temperature;humidity
17764;BME280;22245;52.832;13.816;2023-01-28T00:03:03;102577.47;;;-0.59;78.40
17764;BME280;22245;52.832;13.816;2023-01-28T00:06:25;102574.84;;;-0.59;78.15
17764;BME280;22245;52.832;13.816;2023-01-28T00:09:46;102582.69;;;-0.59;78.07
17764;BME280;22245;52.832;13.816;2023-01-28T00:13:11;102592.28;;;-0.56;77.64
17764;BME280;22245;52.832;13.816;2023-01-28T00:16:34;102588.78;;;-0.57;78.39
17764;BME280;22245;52.832;13.816;2023-01-28T00:19:55;102595.75;;;-0.56;77.71
17764;BME280;22245;52.832;13.816;2023-01-28T00:23:18;102592.25;;;-0.55;78.33
17764;BME280;22245;52.832;13.816;2023-01-28T00:26:39;102589.63;;;-0.50;77.93
17764;BME280;22245;52.832;13.816;2023-01-28T00:30:03;102594.81;;;-0.49;77.11
17764;BME280;22245;52.832;13.816;2023-01-28T00:33:29;102586.06;;;-0.45;77.94
17764;BME280;22245;52.832;13.816;2023-01-28T00:36:51;102581.66;;;-0.42;77.59
17764;BME280;22245;52.832;13.816;2023-01-28T00:40:17;102584.31;;;-0.44;78.16
17764;BME280;22245;52.832;13.816;2023-01-28T00:43:39;102592.13;;;-0.41;78.19
17764;BME280;22245;52.832;13.816;2023-01-28T00:47:02;102602.56;;;-0.39;77.56
17764;BME280;22245;52.832;13.816;2023-01-28T00:50:24;102600.84;;;-0.40;77.23
17764;BME280;22245;52.832;13.816;2023-01-28T00:53:46;102588.59;;;-0.38;78.47
17764;BME280;22245;52.832;13.816;2023-01-28T00:57:08;102596.50;;;-0.40;78.04
17764;BME280;22245;52.832;13.816;2023-01-28T01:00:29;102593.03;;;-0.44;77.68
17764;BME280;22245;52.832;13.816;2023-01-28T01:03:53;102590.41;;;-0.42;78.00
17764;BME280;22245;52.832;13.816;2023-01-28T01:07:23;102586.88;;;-0.39;78.17
17764;BME280;22245;52.832;13.816;2023-01-28T01:10:57;102588.63;;;-0.40;78.97
17764;BME280;22245;52.832;13.816;2023-01-28T01:14:19;102589.47;;;-0.35;78.82
17764;BME280;22245;52.832;13.816;2023-01-28T01:17:42;102586.00;;;-0.35;77.95
17764;BME280;22245;52.832;13.816;2023-01-28T01:21:08;102581.63;;;-0.36;78.15
17764;BME280;22245;52.832;13.816;2023-01-28T01:24:30;102586.88;;;-0.36;78.27
17764;BME280;22245;52.832;13.816;2023-01-28T01:27:53;102599.06;;;-0.35;78.32
17764;BME280;22245;52.832;13.816;2023-01-28T01:31:19;102596.47;;;-0.35;79.11
17764;BME280;22245;52.832;13.816;2023-01-28T01:34:41;102598.16;;;-0.31;78.80
17764;BME280;22245;52.832;13.816;2023-01-28T01:38:05;102592.06;;;-0.33;78.34
17764;BME280;22245;52.832;13.816;2023-01-28T01:41:28;102598.19;;;-0.34;79.57
17764;BME280;22245;52.832;13.816;2023-01-28T01:44:58;102605.16;;;-0.33;79.93
17764;BME280;22245;52.832;13.816;2023-01-28T01:48:22;102604.31;;;-0.35;79.16
17764;BME280;22245;52.832;13.816;2023-01-28T01:51:48;102596.44;;;-0.32;79.88
17764;BME280;22245;52.832;13.816;2023-01-28T01:55:16;102595.47;;;-0.26;79.54
17764;BME280;22245;52.832;13.816;2023-01-28T01:58:42;102604.22;;;-0.26;80.15
17764;BME280;22245;52.832;13.816;2023-01-28T02:02:07;102595.41;;;-0.19;79.59
17764;BME280;22245;52.832;13.816;2023-01-28T02:05:30;102602.38;;;-0.18;80.08
17764;BME280;22245;52.832;13.816;2023-01-28T02:08:53;102601.47;;;-0.13;79.39
17764;BME280;22245;52.832;13.816;2023-01-28T02:12:18;102601.47;;;-0.13;78.90
17764;BME280;22245;52.832;13.816;2023-01-28T02:15:43;102605.81;;;-0.12;78.97
17764;BME280;22245;52.832;13.816;2023-01-28T02:19:06;102606.69;;;-0.09;80.05
17764;BME280;22245;52.832;13.816;2023-01-28T02:23:09;102594.34;;;-0.02;79.19
17764;BME280;22245;52.832;13.816;2023-01-28T02:26:54;102591.72;;;0.01;78.74
17764;BME280;22245;52.832;13.816;2023-01-28T02:30:24;102592.59;;;0.03;79.33
17764;BME280;22245;52.832;13.816;2023-01-28T02:33:55;102599.56;;;0.03;79.07
17764;BME280;22245;52.832;13.816;2023-01-28T02:37:21;102598.66;;;0.05;79.01
17764;BME280;22245;52.832;13.816;2023-01-28T02:40:47;102598.63;;;0.08;78.80
17764;BME280;22245;52.832;13.816;2023-01-28T02:44:25;102602.94;;;0.12;78.71
17764;BME280;22245;52.832;13.816;2023-01-28T02:47:48;102607.31;;;0.13;79.27
17764;BME280;22245;52.832;13.816;2023-01-28T02:51:27;102598.59;;;0.11;78.43
17764;BME280;22245;52.832;13.816;2023-01-28T02:54:57;102605.53;;;0.16;79.58
17764;BME280;22245;52.832;13.816;2023-01-28T02:58:25;102596.75;;;0.18;78.89
17764;BME280;22245;52.832;13.816;2023-01-28T03:01:53;102602.88;;;0.17;78.98
17764;BME280;22245;52.832;13.816;2023-01-28T03:05:23;102596.78;;;0.17;78.80
17764;BME280;22245;52.832;13.816;2023-01-28T03:08:50;102592.41;;;0.17;79.33
17764;BME280;22245;52.832;13.816;2023-01-28T03:12:31;102596.75;;;0.21;79.73
17764;BME280;22245;52.832;13.816;2023-01-28T03:16:10;102589.69;;;0.25;80.14
17764;BME280;22245;52.832;13.816;2023-01-28T03:19:49;102594.06;;;0.26;78.75
17764;BME280;22245;52.832;13.816;2023-01-28T03:23:31;102582.72;;;0.25;79.53
17764;BME280;22245;52.832;13.816;2023-01-28T03:27:18;102588.84;;;0.24;77.88
17764;BME280;22245;52.832;13.816;2023-01-28T03:31:05;102579.16;;;0.28;77.52
17764;BME280;22245;52.832;13.816;2023-01-28T03:34:49;102585.25;;;0.30;78.27
17764;BME280;22245;52.832;13.816;2023-01-28T03:38:32;102582.59;;;0.33;78.79
17764;BME280;22245;52.832;13.816;2023-01-28T03:42:05;102594.78;;;0.37;78.33
17764;BME280;22245;52.832;13.816;2023-01-28T03:45:29;102581.72;;;0.36;79.26
17764;BME280;22245;52.832;13.816;2023-01-28T03:48:52;102596.53;;;0.38;78.50
17764;BME280;22245;52.832;13.816;2023-01-28T03:52:15;102588.63;;;0.40;78.28
17764;BME280;22245;52.832;13.816;2023-01-28T03:55:39;102583.34;;;0.45;78.48
17764;BME280;22245;52.832;13.816;2023-01-28T03:59:00;102592.91;;;0.47;78.71
17764;BME280;22245;52.832;13.816;2023-01-28T04:02:22;102597.31;;;0.47;78.96
17764;BME280;22245;52.832;13.816;2023-01-28T04:05:56;102596.47;;;0.45;78.21
17764;BME280;22245;52.832;13.816;2023-01-28T04:09:22;102596.41;;;0.48;78.59
17764;BME280;22245;52.832;13.816;2023-01-28T04:12:54;102591.22;;;0.45;78.99
17764;BME280;22245;52.832;13.816;2023-01-28T04:16:18;102588.56;;;0.48;79.22
17764;BME280;22245;52.832;13.816;2023-01-28T04:19:40;102593.75;;;0.49;79.09
17764;BME280;22245;52.832;13.816;2023-01-28T04:23:02;102592.03;;;0.50;78.25
17764;BME280;22245;52.832;13.816;2023-01-28T04:26:24;102590.22;;;0.53;79.24
17764;BME280;22245;52.832;13.816;2023-01-28T04:29:47;102593.72;;;0.54;78.63
17764;BME280;22245;52.832;13.816;2023-01-28T04:33:29;102594.56;;;0.56;78.38
17764;BME280;22245;52.832;13.816;2023-01-28T04:37:14;102598.06;;;0.55;78.70
17764;BME280;22245;52.832;13.816;2023-01-28T04:40:48;102595.41;;;0.56;78.85
17764;BME280;22245;52.832;13.816;2023-01-28T04:44:19;102588.38;;;0.62;78.10
17764;BME280;22245;52.832;13.816;2023-01-28T04:48:10;102586.56;;;0.65;78.33
17764;BME280;22245;52.832;13.816;2023-01-28T04:51:58;102590.94;;;0.65;78.55
17764;BME280;22245;52.832;13.816;2023-01-28T04:55:25;102585.66;;;0.66;77.78
17764;BME280;22245;52.832;13.816;2023-01-28T04:58:47;102584.81;;;0.66;78.00
17764;BME280;22245;52.832;13.816;2023-01-28T05:02:09;102589.19;;;0.65;77.85
17764;BME280;22245;52.832;13.816;2023-01-28T05:05:35;102596.13;;;0.69;77.76
17764;BME280;22245;52.832;13.816;2023-01-28T05:09:10;102597.81;;;0.74;77.69
17764;BME280;22245;52.832;13.816;2023-01-28T05:12:33;102601.31;;;0.74;76.96
17764;BME280;22245;52.832;13.816;2023-01-28T05:15:58;102617.06;;;0.72;78.15
17764;BME280;22245;52.832;13.816;2023-01-28T05:19:20;102610.97;;;0.70;77.56
17764;BME280;22245;52.832;13.816;2023-01-28T05:22:43;102609.22;;;0.71;77.49
17764;BME280;22245;52.832;13.816;2023-01-28T05:26:14;102613.59;;;0.70;77.25
17764;BME280;22245;52.832;13.816;2023-01-28T05:29:36;102610.06;;;0.73;78.23
17764;BME280;22245;52.832;13.816;2023-01-28T05:32:57;102614.38;;;0.77;77.75
17764;BME280;22245;52.832;13.816;2023-01-28T05:36:19;102613.50;;;0.78;78.16
17764;BME280;22245;52.832;13.816;2023-01-28T05:39:42;102603.88;;;0.79;77.47
17764;BME280;22245;52.832;13.816;2023-01-28T05:43:04;102604.72;;;0.81;77.32
17764;BME280;22245;52.832;13.816;2023-01-28T05:46:46;102607.31;;;0.82;77.12
17764;BME280;22245;52.832;13.816;2023-01-28T05:50:27;102609.97;;;0.81;76.50
17764;BME280;22245;52.832;13.816;2023-01-28T05:54:03;102608.19;;;0.83;76.52
17764;BME280;22245;52.832;13.816;2023-01-28T05:57:26;102614.28;;;0.83;77.30
17764;BME280;22245;52.832;13.816;2023-01-28T06:00:48;102609.03;;;0.83;77.37
17764;BME280;22245;52.832;13.816;2023-01-28T06:04:14;102609.88;;;0.87;76.55
17764;BME280;22245;52.832;13.816;2023-01-28T06:07:39;102602.81;;;0.91;77.18
17764;BME280;22245;52.832;13.816;2023-01-28T06:11:04;102596.66;;;0.95;76.30
17764;BME280;22245;52.832;13.816;2023-01-28T06:14:28;102605.38;;;0.95;76.56
17764;BME280;22245;52.832;13.816;2023-01-28T06:18:09;102603.66;;;0.94;76.70
17764;BME280;22245;52.832;13.816;2023-01-28T06:21:30;102602.75;;;0.94;76.85
17764;BME280;22245;52.832;13.816;2023-01-28T06:24:53;102604.59;;;0.90;76.79
17764;BME280;22245;52.832;13.816;2023-01-28T06:28:15;102607.16;;;0.92;76.59
17764;BME280;22245;52.832;13.816;2023-01-28T06:31:38;102609.78;;;0.93;76.45
17764;BME280;22245;52.832;13.816;2023-01-28T06:35:00;102606.25;;;0.96;77.32
17764;BME280;22245;52.832;13.816;2023-01-28T06:38:22;102608.00;;;0.97;76.75
17764;BME280;22245;52.832;13.816;2023-01-28T06:41:43;102618.44;;;0.98;76.25
17764;BME280;22245;52.832;13.816;2023-01-28T06:45:06;102608.84;;;0.97;76.14
17764;BME280;22245;52.832;13.816;2023-01-28T06:48:29;102614.94;;;0.99;75.77
17764;BME280;22245;52.832;13.816;2023-01-28T06:51:50;102615.81;;;0.98;76.18
17764;BME280;22245;52.832;13.816;2023-01-28T06:55:12;102612.34;;;0.96;76.48
17764;BME280;22245;52.832;13.816;2023-01-28T06:58:34;102623.75;;;0.97;75.90
17764;BME280;22245;52.832;13.816;2023-01-28T07:01:55;102622.84;;;0.98;75.26
17764;BME280;22245;52.832;13.816;2023-01-28T07:05:19;102625.38;;;1.03;75.52
17764;BME280;22245;52.832;13.816;2023-01-28T07:08:41;102628.81;;;1.08;75.77
17764;BME280;22245;52.832;13.816;2023-01-28T07:12:02;102638.44;;;1.07;75.19
17764;BME280;22245;52.832;13.816;2023-01-28T07:15:25;102635.81;;;1.07;75.85
17764;BME280;22245;52.832;13.816;2023-01-28T07:18:46;102634.97;;;1.05;75.88
17764;BME280;22245;52.832;13.816;2023-01-28T07:22:09;102634.91;;;1.10;76.36
17764;BME280;22245;52.832;13.816;2023-01-28T07:25:31;102631.38;;;1.11;75.48
17764;BME280;22245;52.832;13.816;2023-01-28T07:28:53;102623.59;;;1.06;75.45
17764;BME280;22245;52.832;13.816;2023-01-28T07:32:15;102631.47;;;1.06;75.96
17764;BME280;22245;52.832;13.816;2023-01-28T07:35:37;102625.34;;;1.06;74.74
17764;BME280;22245;52.832;13.816;2023-01-28T07:39:00;102622.63;;;1.12;75.04
17764;BME280;22245;52.832;13.816;2023-01-28T07:42:21;102620.88;;;1.12;75.27
17764;BME280;22245;52.832;13.816;2023-01-28T07:45:45;102629.59;;;1.14;75.20
17764;BME280;22245;52.832;13.816;2023-01-28T07:49:08;102619.03;;;1.19;75.05
17764;BME280;22245;52.832;13.816;2023-01-28T07:52:29;102625.97;;;1.22;74.92
17764;BME280;22245;52.832;13.816;2023-01-28T07:55:59;102633.00;;;1.21;75.24
17764;BME280;22245;52.832;13.816;2023-01-28T07:59:21;102637.31;;;1.24;74.85
17764;BME280;22245;52.832;13.816;2023-01-28T08:02:43;102643.44;;;1.23;74.46
17764;BME280;22245;52.832;13.816;2023-01-28T08:06:07;102652.16;;;1.25;74.36
17764;BME280;22245;52.832;13.816;2023-01-28T08:09:29;102640.72;;;1.30;74.36
17764;BME280;22245;52.832;13.816;2023-01-28T08:12:56;102647.66;;;1.36;74.17
17764;BME280;22245;52.832;13.816;2023-01-28T08:16:18;102645.88;;;1.37;74.15
17764;BME280;22245;52.832;13.816;2023-01-28T08:19:40;102649.38;;;1.36;74.10
17764;BME280;22245;52.832;13.816;2023-01-28T08:23:06;102661.63;;;1.37;73.91
17764;BME280;22245;52.832;13.816;2023-01-28T08:26:28;102664.16;;;1.43;74.27
17764;BME280;22245;52.832;13.816;2023-01-28T08:29:50;102662.34;;;1.47;74.10
17764;BME280;22245;52.832;13.816;2023-01-28T08:33:14;102671.03;;;1.52;73.84
17764;BME280;22245;52.832;13.816;2023-01-28T08:36:35;102661.31;;;1.57;73.81
17764;BME280;22245;52.832;13.816;2023-01-28T08:39:57;102663.97;;;1.55;73.84
17764;BME280;22245;52.832;13.816;2023-01-28T08:43:19;102658.66;;;1.58;74.38
17764;BME280;22245;52.832;13.816;2023-01-28T08:46:42;102663.81;;;1.63;73.29
17764;BME280;22245;52.832;13.816;2023-01-28T08:50:05;102667.25;;;1.68;73.68
17764;BME280;22245;52.832;13.816;2023-01-28T08:53:26;102664.59;;;1.70;71.77
17764;BME280;22245;52.832;13.816;2023-01-28T08:56:48;102675.94;;;1.72;72.29
17764;BME280;22245;52.832;13.816;2023-01-28T09:00:11;102676.72;;;1.77;72.64
17764;BME280;22245;52.832;13.816;2023-01-28T09:03:35;102676.69;;;1.80;72.87
17764;BME280;22245;52.832;13.816;2023-01-28T09:06:56;102684.50;;;1.85;72.82
17764;BME280;22245;52.832;13.816;2023-01-28T09:10:18;102688.81;;;1.89;71.87
17764;BME280;22245;52.832;13.816;2023-01-28T09:13:41;102689.63;;;1.93;71.84
17764;BME280;22245;52.832;13.816;2023-01-28T09:17:03;102686.94;;;1.96;71.84
17764;BME280;22245;52.832;13.816;2023-01-28T09:20:26;102703.50;;;1.99;71.61
17764;BME280;22245;52.832;13.816;2023-01-28T09:23:48;102697.41;;;1.99;71.87
17764;BME280;22245;52.832;13.816;2023-01-28T09:27:10;102699.13;;;2.00;71.60
17764;BME280;22245;52.832;13.816;2023-01-28T09:30:32;102705.19;;;2.03;71.82
17764;BME280;22245;52.832;13.816;2023-01-28T09:33:57;102703.38;;;2.07;71.47
17764;BME280;22245;52.832;13.816;2023-01-28T09:37:19;102697.16;;;2.11;71.55
17764;BME280;22245;52.832;13.816;2023-01-28T09:40:42;102713.75;;;2.15;71.17
17764;BME280;22245;52.832;13.816;2023-01-28T09:44:13;102713.75;;;2.15;70.62
17764;BME280;22245;52.832;13.816;2023-01-28T09:47:43;102711.94;;;2.19;69.84
17764;BME280;22245;52.832;13.816;2023-01-28T09:51:09;102718.97;;;2.16;65.34
17764;BME280;22245;52.832;13.816;2023-01-28T09:54:39;102713.66;;;2.21;65.56
17764;BME280;22245;52.832;13.816;2023-01-28T09:58:05;102710.88;;;2.29;66.79
17764;BME280;22245;52.832;13.816;2023-01-28T10:01:37;102709.00;;;2.36;66.63
17764;BME280;22245;52.832;13.816;2023-01-28T10:05:11;102708.03;;;2.40;66.04
17764;BME280;22245;52.832;13.816;2023-01-28T10:08:44;102701.84;;;2.42;64.85
17764;BME280;22245;52.832;13.816;2023-01-28T10:12:26;102706.16;;;2.46;63.99
17764;BME280;22245;52.832;13.816;2023-01-28T10:16:11;102716.56;;;2.53;64.11
17764;BME280;22245;52.832;13.816;2023-01-28T10:19:42;102712.13;;;2.55;64.17
17764;BME280;22245;52.832;13.816;2023-01-28T10:23:09;102700.66;;;2.59;64.18
17764;BME280;22245;52.832;13.816;2023-01-28T10:26:37;102697.09;;;2.62;64.11
17764;BME280;22245;52.832;13.816;2023-01-28T10:30:15;102698.84;;;2.61;64.23
17764;BME280;22245;52.832;13.816;2023-01-28T10:33:38;102692.66;;;2.65;63.12
17764;BME280;22245;52.832;13.816;2023-01-28T10:37:00;102689.97;;;2.68;63.18
17764;BME280;22245;52.832;13.816;2023-01-28T10:40:22;102695.09;;;2.73;62.92
17764;BME280;22245;52.832;13.816;2023-01-28T10:43:43;102701.19;;;2.75;62.77
17764;BME280;22245;52.832;13.816;2023-01-28T10:47:11;102693.28;;;2.77;61.86
17764;BME280;22245;52.832;13.816;2023-01-28T10:50:34;102687.97;;;2.78;61.34
17764;BME280;22245;52.832;13.816;2023-01-28T10:53:56;102682.72;;;2.78;61.39
17764;BME280;22245;52.832;13.816;2023-01-28T10:57:18;102681.88;;;2.78;61.05
17764;BME280;22245;52.832;13.816;2023-01-28T11:00:39;102686.13;;;2.83;61.01
17764;BME280;22245;52.832;13.816;2023-01-28T11:04:03;102692.25;;;2.85;61.19
17764;BME280;22245;52.832;13.816;2023-01-28T11:07:24;102689.53;;;2.88;60.46
17764;BME280;22245;52.832;13.816;2023-01-28T11:10:47;102685.25;;;2.84;60.09
17764;BME280;22245;52.832;13.816;2023-01-28T11:14:19;102682.56;;;2.86;60.48
17764;BME280;22245;52.832;13.816;2023-01-28T11:17:47;102678.13;;;2.89;60.91
17764;BME280;22245;52.832;13.816;2023-01-28T11:21:15;102677.28;;;2.87;59.32
17764;BME280;22245;52.832;13.816;2023-01-28T11:24:38;102679.94;;;2.86;59.46
17764;BME280;22245;52.832;13.816;2023-01-28T11:28:13;102674.59;;;2.91;59.52
17764;BME280;22245;52.832;13.816;2023-01-28T11:31:40;102671.00;;;2.93;59.76
17764;BME280;22245;52.832;13.816;2023-01-28T11:35:04;102668.41;;;2.92;59.11
17764;BME280;22245;52.832;13.816;2023-01-28T11:38:28;102651.66;;;2.94;59.60
17764;BME280;22245;52.832;13.816;2023-01-28T11:41:50;102648.13;;;2.97;58.76
17764;BME280;22245;52.832;13.816;2023-01-28T11:45:15;102656.03;;;2.97;58.76
17764;BME280;22245;52.832;13.816;2023-01-28T11:48:43;102657.69;;;3.01;59.48
17764;BME280;22245;52.832;13.816;2023-01-28T11:52:15;102653.22;;;3.04;58.79
17764;BME280;22245;52.832;13.816;2023-01-28T11:55:50;102651.50;;;3.03;59.17
17764;BME280;22245;52.832;13.816;2023-01-28T11:59:26;102641.91;;;2.99;58.00
17764;BME280;22245;52.832;13.816;2023-01-28T12:02:56;102653.75;;;2.80;58.32
17764;BME280;22245;52.832;13.816;2023-01-28T12:06:30;102640.53;;;2.83;58.67
17764;BME280;22245;52.832;13.816;2023-01-28T12:09:59;102642.47;;;2.73;58.22
17764;BME280;22245;52.832;13.816;2023-01-28T12:13:36;102642.31;;;2.81;58.79
17764;BME280;22245;52.832;13.816;2023-01-28T12:17:09;102638.72;;;2.85;59.10
17764;BME280;22245;52.832;13.816;2023-01-28T12:20:39;102637.69;;;2.92;59.11
17764;BME280;22245;52.832;13.816;2023-01-28T12:24:16;102629.09;;;2.84;59.43
17764;BME280;22245;52.832;13.816;2023-01-28T12:27:49;102634.28;;;2.87;59.04
17764;BME280;22245;52.832;13.816;2023-01-28T12:31:28;102629.31;;;2.74;59.49
17764;BME280;22245;52.832;13.816;2023-01-28T12:35:04;102634.66;;;2.70;59.55
17764;BME280;22245;52.832;13.816;2023-01-28T12:38:39;102630.91;;;2.82;59.65
17764;BME280;22245;52.832;13.816;2023-01-28T12:42:09;102637.81;;;2.86;59.47
17764;BME280;22245;52.832;13.816;2023-01-28T12:45:38;102619.41;;;2.86;59.83
17764;BME280;22245;52.832;13.816;2023-01-28T12:49:06;102623.00;;;2.82;60.07
17764;BME280;22245;52.832;13.816;2023-01-28T12:52:34;102630.75;;;2.88;59.62
17764;BME280;22245;52.832;13.816;2023-01-28T12:56:03;102620.13;;;2.93;59.88
17764;BME280;22245;52.832;13.816;2023-01-28T12:59:32;102617.50;;;2.93;59.87
17764;BME280;22245;52.832;13.816;2023-01-28T13:03:01;102607.84;;;2.93;59.88
17764;BME280;22245;52.832;13.816;2023-01-28T13:06:32;102596.47;;;2.91;59.86
17764;BME280;22245;52.832;13.816;2023-01-28T13:10:00;102593.78;;;2.94;59.63
17764;BME280;22245;52.832;13.816;2023-01-28T13:13:28;102592.84;;;2.97;60.31
17764;BME280;22245;52.832;13.816;2023-01-28T13:16:51;102585.81;;;2.97;59.60
17764;BME280;22245;52.832;13.816;2023-01-28T13:20:15;102587.53;;;2.98;60.10
17764;BME280;22245;52.832;13.816;2023-01-28T13:23:40;102588.34;;;3.00;60.84
17764;BME280;22245;52.832;13.816;2023-01-28T13:27:11;102569.03;;;3.01;60.86
17764;BME280;22245;52.832;13.816;2023-01-28T13:30:47;102566.41;;;3.01;60.45
17764;BME280;22245;52.832;13.816;2023-01-28T13:34:26;102572.53;;;3.02;60.40
17764;BME280;22245;52.832;13.816;2023-01-28T13:37:48;102580.34;;;3.05;60.41
17764;BME280;22245;52.832;13.816;2023-01-28T13:41:12;102573.34;;;3.06;60.07
17764;BME280;22245;52.832;13.816;2023-01-28T13:44:35;102572.44;;;3.07;59.83
17764;BME280;22245;52.832;13.816;2023-01-28T13:48:17;102561.09;;;3.04;59.79
17764;BME280;22245;52.832;13.816;2023-01-28T13:51:54;102561.03;;;3.06;60.43
17764;BME280;22245;52.832;13.816;2023-01-28T13:55:19;102553.06;;;3.09;59.78
17764;BME280;22245;52.832;13.816;2023-01-28T13:59:36;102555.75;;;3.08;59.56
17764;BME280;22245;52.832;13.816;2023-01-28T14:03:32;102553.06;;;3.09;57.74
17764;BME280;22245;52.832;13.816;2023-01-28T14:07:08;102548.59;;;3.13;57.26
17764;BME280;22245;52.832;13.816;2023-01-28T14:10:49;102548.53;;;3.14;56.66
17764;BME280;22245;52.832;13.816;2023-01-28T14:14:29;102552.00;;;3.16;57.39
17764;BME280;22245;52.832;13.816;2023-01-28T14:17:56;102551.97;;;3.18;57.99
17764;BME280;22245;52.832;13.816;2023-01-28T14:21:19;102564.19;;;3.21;56.67
17764;BME280;22245;52.832;13.816;2023-01-28T14:24:43;102565.91;;;3.22;55.34
17764;BME280;22245;52.832;13.816;2023-01-28T14:28:05;102574.91;;;3.13;54.90
17764;BME280;22245;52.832;13.816;2023-01-28T14:31:32;102572.16;;;3.17;54.57
17764;BME280;22245;52.832;13.816;2023-01-28T14:34:54;102581.16;;;3.09;54.88
17764;BME280;22245;52.832;13.816;2023-01-28T14:38:19;102582.16;;;3.04;55.36
17764;BME280;22245;52.832;13.816;2023-01-28T14:41:43;102574.16;;;3.08;54.80
17764;BME280;22245;52.832;13.816;2023-01-28T14:45:19;102576.75;;;3.09;54.86
17764;BME280;22245;52.832;13.816;2023-01-28T14:48:51;102572.38;;;3.10;55.74
17764;BME280;22245;52.832;13.816;2023-01-28T14:52:29;102589.06;;;3.09;55.12
17764;BME280;22245;52.832;13.816;2023-01-28T14:56:04;102577.78;;;3.03;55.40
17764;BME280;22245;52.832;13.816;2023-01-28T14:59:36;102578.81;;;2.96;55.11
17764;BME280;22245;52.832;13.816;2023-01-28T15:03:06;102577.91;;;2.97;53.84
17764;BME280;22245;52.832;13.816;2023-01-28T15:06:45;102584.13;;;2.95;54.94
17764;BME280;22245;52.832;13.816;2023-01-28T15:10:15;102586.03;;;2.88;55.30
17764;BME280;22245;52.832;13.816;2023-01-28T15:13:40;102581.66;;;2.87;55.81
17764;BME280;22245;52.832;13.816;2023-01-28T15:17:03;102572.19;;;2.80;55.56
17764;BME280;22245;52.832;13.816;2023-01-28T15:20:25;102580.06;;;2.80;55.44
17764;BME280;22245;52.832;13.816;2023-01-28T15:23:50;102572.09;;;2.83;55.00
17764;BME280;22245;52.832;13.816;2023-01-28T15:27:17;102561.56;;;2.84;55.90
17764;BME280;22245;52.832;13.816;2023-01-28T15:30:44;102565.94;;;2.84;56.29
17764;BME280;22245;52.832;13.816;2023-01-28T15:34:11;102561.59;;;2.81;56.43
17764;BME280;22245;52.832;13.816;2023-01-28T15:37:33;102561.59;;;2.81;56.65
17764;BME280;22245;52.832;13.816;2023-01-28T15:40:58;102580.91;;;2.82;56.72
17764;BME280;22245;52.832;13.816;2023-01-28T15:44:26;102601.16;;;2.78;56.09
17764;BME280;22245;52.832;13.816;2023-01-28T15:47:49;102598.56;;;2.77;56.23
17764;BME280;22245;52.832;13.816;2023-01-28T15:51:18;102606.47;;;2.77;57.00
17764;BME280;22245;52.832;13.816;2023-01-28T15:54:42;102616.16;;;2.74;57.15
17764;BME280;22245;52.832;13.816;2023-01-28T15:58:24;102619.69;;;2.73;57.31
17764;BME280;22245;52.832;13.816;2023-01-28T16:01:47;102611.81;;;2.72;57.29
17764;BME280;22245;52.832;13.816;2023-01-28T16:05:25;102614.50;;;2.70;57.57
17764;BME280;22245;52.832;13.816;2023-01-28T16:08:51;102609.25;;;2.69;57.87
17764;BME280;22245;52.832;13.816;2023-01-28T16:12:13;102601.41;;;2.67;58.17
17764;BME280;22245;52.832;13.816;2023-01-28T16:15:44;102585.66;;;2.64;58.16
17764;BME280;22245;52.832;13.816;2023-01-28T16:19:30;102578.66;;;2.63;58.12
17764;BME280;22245;52.832;13.816;2023-01-28T16:22:55;102587.47;;;2.62;58.18
17764;BME280;22245;52.832;13.816;2023-01-28T16:26:23;102594.53;;;2.60;58.63
17764;BME280;22245;52.832;13.816;2023-01-28T16:29:45;102599.84;;;2.57;58.55
17764;BME280;22245;52.832;13.816;2023-01-28T16:33:16;102600.81;;;2.54;58.23
17764;BME280;22245;52.832;13.816;2023-01-28T16:36:38;102608.72;;;2.53;58.82
17764;BME280;22245;52.832;13.816;2023-01-28T16:40:00;102617.50;;;2.52;58.96
17764;BME280;22245;52.832;13.816;2023-01-28T16:43:21;102624.69;;;2.43;59.03
17764;BME280;22245;52.832;13.816;2023-01-28T16:46:44;102627.31;;;2.43;59.04
17764;BME280;22245;52.832;13.816;2023-01-28T16:50:09;102622.22;;;2.36;59.45
17764;BME280;22245;52.832;13.816;2023-01-28T16:53:32;102630.97;;;2.36;59.08
17764;BME280;22245;52.832;13.816;2023-01-28T16:56:55;102640.63;;;2.36;59.03
17764;BME280;22245;52.832;13.816;2023-01-28T17:00:19;102635.41;;;2.34;59.20
17764;BME280;22245;52.832;13.816;2023-01-28T17:03:42;102626.69;;;2.32;58.66
17764;BME280;22245;52.832;13.816;2023-01-28T17:07:05;102634.59;;;2.30;59.07
17764;BME280;22245;52.832;13.816;2023-01-28T17:10:28;102646.97;;;2.25;59.22
17764;BME280;22245;52.832;13.816;2023-01-28T17:13:49;102646.97;;;2.25;59.15
17764;BME280;22245;52.832;13.816;2023-01-28T17:17:11;102654.03;;;2.22;59.08
17764;BME280;22245;52.832;13.816;2023-01-28T17:20:33;102654.06;;;2.20;58.92
17764;BME280;22245;52.832;13.816;2023-01-28T17:24:01;102663.78;;;2.16;58.76
17764;BME280;22245;52.832;13.816;2023-01-28T17:27:23;102653.38;;;2.12;58.73
17764;BME280;22245;52.832;13.816;2023-01-28T17:30:44;102647.28;;;2.08;59.18
17764;BME280;22245;52.832;13.816;2023-01-28T17:34:06;102649.97;;;2.03;58.85
17764;BME280;22245;52.832;13.816;2023-01-28T17:37:30;102645.72;;;1.98;59.34
17764;BME280;22245;52.832;13.816;2023-01-28T17:41:00;102637.91;;;1.93;59.48
17764;BME280;22245;52.832;13.816;2023-01-28T17:44:21;102636.25;;;1.87;59.96
17764;BME280;22245;52.832;13.816;2023-01-28T17:47:43;102643.34;;;1.82;59.86
17764;BME280;22245;52.832;13.816;2023-01-28T17:51:05;102651.41;;;1.75;60.18
17764;BME280;22245;52.832;13.816;2023-01-28T17:54:27;102647.97;;;1.69;59.97
17764;BME280;22245;52.832;13.816;2023-01-28T17:57:49;102649.78;;;1.66;60.07
17764;BME280;22245;52.832;13.816;2023-01-28T18:01:11;102649.00;;;1.61;60.58